Time;durP1;ratioP1;P1;durP2;ratioP2;P2;SDS_P1;SDS_P2;PMS_P1;PMS_P2;Temp;Humidity;BMP_temperature;BMP_pressure;BME280_temperature;BME280_humidity;BME280_pressure;Samples;Min_cycle;Max_cycle;Signal;HPM_P1;HPM_P2
2021/04/10 00:06:41;;;;;;;2.62;2.42;;;;;;;;;;4584984;28;20527;-47
2021/04/10 00:09:15;;;;;;;3.40;2.65;;;;;;;;;;4196614;34;20589;-50
2021/04/10 00:11:49;;;;;;;4.87;2.80;;;;;;;;;;4202194;34;20557;-48
2021/04/10 00:14:18;;;;;;;2.85;2.62;;;;;;;;;;4203436;34;20126;-47
2021/04/10 00:16:46;;;;;;;2.95;2.60;;;;;;;;;;4190718;34;20137;-50
2021/04/10 00:19:14;;;;;;;3.12;2.70;;;;;;;;;;4190523;34;20090;-53
2021/04/10 00:21:41;;;;;;;2.97;2.72;;;;;;;;;;4201440;34;20122;-54
2021/04/10 00:24:09;;;;;;;2.92;2.60;;;;;;;;;;4201730;34;20114;-50
2021/04/10 00:26:35;;;;;;;3.00;2.80;;;;;;;;;;4202931;34;20124;-50
2021/04/10 00:29:01;;;;;;;3.42;3.12;;;;;;;;;;4203072;34;20117;-52
2021/04/10 00:31:28;;;;;;;3.12;2.83;;;;;;;;;;4203138;34;20129;-54
2021/04/10 00:33:54;;;;;;;3.65;2.85;;;;;;;;;;4203151;34;20121;-52
2021/04/10 00:36:20;;;;;;;2.90;2.70;;;;;;;;;;4190416;34;20533;-52
2021/04/10 00:38:46;;;;;;;3.00;2.70;;;;;;;;;;4190164;34;20236;-50
2021/04/10 00:41:13;;;;;;;3.17;2.87;;;;;;;;;;4202963;34;20230;-52
2021/04/10 00:43:39;;;;;;;3.30;3.00;;;;;;;;;;4178930;34;20117;-51
2021/04/10 00:46:06;;;;;;;3.42;3.08;;;;;;;;;;4202872;34;20868;-52
2021/04/10 00:48:33;;;;;;;3.40;3.10;;;;;;;;;;4190138;34;20114;-50
2021/04/10 00:51:00;;;;;;;3.50;3.20;;;;;;;;;;4202511;34;20091;-52
2021/04/10 00:53:26;;;;;;;4.07;3.65;;;;;;;;;;4190130;34;20125;-49
2021/04/10 00:55:54;;;;;;;3.53;3.20;;;;;;;;;;4189716;34;20103;-50
2021/04/10 00:58:21;;;;;;;3.95;3.55;;;;;;;;;;4189777;34;20229;-52
2021/04/10 01:00:47;;;;;;;4.12;3.67;;;;;;;;;;4189700;34;20552;-49
2021/04/10 01:03:14;;;;;;;4.30;3.72;;;;;;;;;;4189654;34;20233;-50
2021/04/10 01:05:41;;;;;;;3.90;3.47;;;;;;;;;;4202310;34;20129;-53
2021/04/10 01:08:07;;;;;;;4.70;4.30;;;;;;;;;;4202675;34;20532;-52
2021/04/10 01:10:34;;;;;;;4.43;4.03;;;;;;;;;;4189707;34;20102;-52
2021/04/10 01:13:19;;;;;;;4.43;4.03;;;;;;;;;;4202690;34;20517;-54
2021/04/10 01:15:54;;;;;;;4.97;4.40;;;;;;;;;;4202719;34;20481;-47
2021/04/10 01:18:44;;;;;;;4.80;4.30;;;;;;;;;;4179217;34;20124;-49
2021/04/10 01:21:16;;;;;;;4.87;4.47;;;;;;;;;;4189679;34;20466;-47
2021/04/10 01:24:05;;;;;;;5.20;4.70;;;;;;;;;;4191354;34;20153;-52
2021/04/10 01:26:53;;;;;;;5.60;5.10;;;;;;;;;;4191226;34;20110;-52
2021/04/10 01:29:19;;;;;;;5.47;4.97;;;;;;;;;;4205301;34;20117;-53
2021/04/10 01:31:49;;;;;;;5.22;4.72;;;;;;;;;;4181869;34;20457;-50
2021/04/10 01:34:25;;;;;;;6.03;5.43;;;;;;;;;;4181951;34;20105;-48
2021/04/10 01:37:03;;;;;;;6.80;6.20;;;;;;;;;;4183443;34;20114;-48
2021/04/10 01:39:32;;;;;;;6.43;5.82;;;;;;;;;;4182302;34;20114;-50
2021/04/10 01:41:58;;;;;;;6.22;5.62;;;;;;;;;;4180871;34;20521;-52
2021/04/10 01:44:24;;;;;;;6.60;6.00;;;;;;;;;;4193429;34;20598;-55
2021/04/10 01:46:50;;;;;;;5.97;5.37;;;;;;;;;;4179125;34;20477;-53
2021/04/10 01:49:17;;;;;;;7.95;7.15;;;;;;;;;;4180223;34;20189;-50
2021/04/10 01:51:43;;;;;;;7.72;6.90;;;;;;;;;;4206235;34;20623;-51
2021/04/10 01:54:10;;;;;;;8.07;7.10;;;;;;;;;;4181999;34;20133;-52
2021/04/10 01:56:38;;;;;;;7.35;6.65;;;;;;;;;;4181802;34;20145;-50
2021/04/10 01:59:04;;;;;;;8.10;7.03;;;;;;;;;;4181898;34;20205;-52
2021/04/10 02:01:31;;;;;;;7.80;7.10;;;;;;;;;;4181984;34;20098;-52
2021/04/10 02:03:57;;;;;;;7.30;6.60;;;;;;;;;;4193182;34;20097;-51
2021/04/10 02:06:23;;;;;;;7.90;7.10;;;;;;;;;;4192941;34;20106;-48
2021/04/10 02:08:55;;;;;;;9.88;7.55;;;;;;;;;;4181647;34;20129;-53
2021/04/10 02:11:24;;;;;;;7.78;6.97;;;;;;;;;;4205646;34;20544;-52
2021/04/10 02:13:51;;;;;;;8.88;8.07;;;;;;;;;;4193269;34;20217;-52
2021/04/10 02:16:17;;;;;;;9.30;8.40;;;;;;;;;;4181726;34;20589;-51
2021/04/10 02:18:46;;;;;;;9.55;8.57;;;;;;;;;;4182259;34;20106;-50
2021/04/10 02:21:13;;;;;;;9.98;8.98;;;;;;;;;;4181763;34;20106;-49
2021/04/10 02:23:43;;;;;;;9.73;8.73;;;;;;;;;;4192912;34;20140;-51
2021/04/10 02:26:09;;;;;;;9.30;8.38;;;;;;;;;;4205495;34;20559;-53
2021/04/10 02:28:38;;;;;;;9.55;8.55;;;;;;;;;;4193069;34;20126;-54
2021/04/10 02:31:08;;;;;;;9.70;8.70;;;;;;;;;;4205854;34;20129;-54
2021/04/10 02:33:40;;;;;;;11.98;7.35;;;;;;;;;;4181665;34;20125;-51
2021/04/10 02:36:07;;;;;;;9.93;8.93;;;;;;;;;;4192806;34;20129;-52
2021/04/10 02:38:35;;;;;;;10.32;8.95;;;;;;;;;;4182122;34;20270;-53
2021/04/10 02:41:09;;;;;;;9.25;8.23;;;;;;;;;;4192016;34;20151;-48
2021/04/10 02:43:37;;;;;;;9.48;7.97;;;;;;;;;;4181527;34;20116;-48
2021/04/10 02:46:03;;;;;;;10.15;9.00;;;;;;;;;;4181353;34;20098;-47
2021/04/10 02:49:04;;;;;;;10.30;9.15;;;;;;;;;;4180770;34;20164;-47
2021/04/10 02:51:42;;;;;;;11.65;9.90;;;;;;;;;;4181297;34;20095;-53
2021/04/10 02:54:14;;;;;;;11.05;9.88;;;;;;;;;;4204035;34;20122;-49
2021/04/10 02:56:46;;;;;;;11.90;10.70;;;;;;;;;;4181411;34;20121;-52
2021/04/10 02:59:12;;;;;;;12.27;10.98;;;;;;;;;;4192629;34;20090;-49
2021/04/10 03:01:38;;;;;;;10.13;9.07;;;;;;;;;;4192366;34;20121;-52
2021/04/10 03:04:05;;;;;;;12.77;10.13;;;;;;;;;;4181516;34;20177;-51
2021/04/10 03:06:31;;;;;;;11.68;10.27;;;;;;;;;;4205060;34;20129;-54
2021/04/10 03:08:58;;;;;;;12.43;11.12;;;;;;;;;;4192792;34;20098;-52
2021/04/10 03:11:24;;;;;;;13.23;10.57;;;;;;;;;;4192583;34;20109;-51
2021/04/10 03:13:51;;;;;;;13.48;11.55;;;;;;;;;;4205307;34;20110;-52
2021/04/10 03:16:17;;;;;;;14.38;10.75;;;;;;;;;;4180948;34;20100;-52
2021/04/10 03:18:44;;;;;;;13.68;12.02;;;;;;;;;;4192521;34;20171;-51
2021/04/10 03:21:10;;;;;;;13.00;11.35;;;;;;;;;;4192230;34;20139;-52
2021/04/10 03:23:36;;;;;;;14.02;11.27;;;;;;;;;;4192441;34;20304;-51
2021/04/10 03:26:02;;;;;;;14.80;13.18;;;;;;;;;;4192332;34;20110;-50
2021/04/10 03:28:29;;;;;;;15.10;12.80;;;;;;;;;;4181315;34;20126;-50
2021/04/10 03:31:02;;;;;;;13.32;11.60;;;;;;;;;;4205019;34;20224;-51
2021/04/10 03:33:32;;;;;;;14.82;13.15;;;;;;;;;;4181362;34;20102;-50
2021/04/10 03:36:00;;;;;;;13.05;10.27;;;;;;;;;;4192764;34;20205;-50
2021/04/10 03:38:28;;;;;;;17.55;13.60;;;;;;;;;;4205020;34;20522;-51
2021/04/10 03:40:58;;;;;;;14.60;11.43;;;;;;;;;;4181019;34;20490;-51
2021/04/10 03:43:30;;;;;;;16.25;13.52;;;;;;;;;;4181702;34;20102;-52
2021/04/10 03:46:02;;;;;;;15.20;13.05;;;;;;;;;;4190841;34;20136;-52
2021/04/10 03:48:32;;;;;;;16.00;12.37;;;;;;;;;;4201181;34;20094;-52
2021/04/10 03:51:09;;;;;;;15.88;12.25;;;;;;;;;;4204278;34;20134;-51
2021/04/10 03:53:43;;;;;;;14.07;11.73;;;;;;;;;;4192467;34;20113;-51
2021/04/10 03:56:25;;;;;;;17.15;13.05;;;;;;;;;;4203893;34;20117;-51
2021/04/10 03:59:10;;;;;;;14.25;10.77;;;;;;;;;;4204402;34;20526;-54
2021/04/10 04:01:59;;;;;;;14.50;13.00;;;;;;;;;;4194538;34;20113;-50
2021/04/10 04:04:36;;;;;;;10.93;8.52;;;;;;;;;;4191926;34;20129;-50
2021/04/10 04:07:19;;;;;;;15.82;12.07;;;;;;;;;;4192590;34;20126;-49
2021/04/10 04:10:00;;;;;;;14.65;11.70;;;;;;;;;;4205074;34;20106;-55
2021/04/10 04:12:35;;;;;;;14.60;10.25;;;;;;;;;;4204992;34;20490;-56
2021/04/10 04:15:09;;;;;;;14.38;11.30;;;;;;;;;;4192486;34;20172;-54
2021/04/10 04:17:45;;;;;;;12.95;11.60;;;;;;;;;;4192245;34;20233;-48
2021/04/10 04:20:15;;;;;;;14.87;12.10;;;;;;;;;;4204819;34;20240;-49
2021/04/10 04:22:50;;;;;;;16.12;11.57;;;;;;;;;;4205001;34;20094;-53
2021/04/10 04:25:18;;;;;;;14.43;12.82;;;;;;;;;;4204766;34;20094;-50
2021/04/10 04:27:49;;;;;;;16.10;12.37;;;;;;;;;;4192230;34;20333;-53
2021/04/10 04:30:19;;;;;;;15.57;12.75;;;;;;;;;;4192178;34;20178;-52
2021/04/10 04:32:49;;;;;;;14.15;11.88;;;;;;;;;;4192252;34;20193;-55
2021/04/10 04:35:15;;;;;;;13.77;12.37;;;;;;;;;;4192217;34;20110;-54
2021/04/10 04:37:42;;;;;;;16.27;13.27;;;;;;;;;;4191660;34;20094;-51
2021/04/10 04:40:16;;;;;;;16.23;12.15;;;;;;;;;;4192076;34;20098;-57
2021/04/10 04:42:46;;;;;;;14.13;12.50;;;;;;;;;;4190517;34;20121;-48
2021/04/10 04:45:20;;;;;;;11.75;10.40;;;;;;;;;;4204524;34;20528;-49
2021/04/10 04:47:49;;;;;;;14.18;11.30;;;;;;;;;;4197219;34;20098;-52
2021/04/10 04:50:24;;;;;;;14.10;12.55;;;;;;;;;;4191609;34;20614;-52
2021/04/10 04:53:06;;;;;;;14.05;12.55;;;;;;;;;;4203403;34;20141;-53
2021/04/10 04:55:46;;;;;;;13.82;12.15;;;;;;;;;;4203986;34;20123;-52
2021/04/10 04:58:13;;;;;;;13.32;11.05;;;;;;;;;;4204458;34;20145;-47
2021/04/10 05:00:39;;;;;;;14.05;10.82;;;;;;;;;;4204333;34;20141;-50
2021/04/10 05:03:09;;;;;;;14.40;11.12;;;;;;;;;;4204522;34;20105;-50
2021/04/10 05:05:43;;;;;;;11.73;8.80;;;;;;;;;;4193116;34;20118;-49
2021/04/10 05:08:16;;;;;;;14.13;11.82;;;;;;;;;;4205342;34;20485;-52
2021/04/10 05:10:48;;;;;;;13.20;11.85;;;;;;;;;;4206474;34;20629;-52
2021/04/10 05:13:26;;;;;;;14.15;11.93;;;;;;;;;;4194420;34;20190;-56
2021/04/10 05:16:00;;;;;;;13.85;11.98;;;;;;;;;;4206439;34;20113;-53
2021/04/10 05:18:43;;;;;;;13.52;12.00;;;;;;;;;;4206393;34;20114;-55
2021/04/10 05:21:13;;;;;;;13.38;12.02;;;;;;;;;;4194286;34;20113;-53
2021/04/10 05:23:45;;;;;;;13.40;12.07;;;;;;;;;;4206319;34;20090;-52
2021/04/10 05:26:18;;;;;;;13.65;12.25;;;;;;;;;;4206502;34;20125;-51
2021/04/10 05:28:49;;;;;;;13.73;12.32;;;;;;;;;;4206385;34;20093;-48
2021/04/10 05:34:17;;;;;;;13.10;11.70;;;;;;;;;;4195061;34;20134;-49
2021/04/10 05:37:05;;;;;;;14.80;12.73;;;;;;;;;;4191882;34;20094;-52
2021/04/10 05:43:19;;;;;;;13.27;11.57;;;;;;;;;;4245526;28;20116;-47
2021/04/10 05:53:19;;;;;;;15.52;11.65;;;;;;;;;;4209224;34;20093;-50
2021/04/10 05:55:57;;;;;;;11.68;10.57;;;;;;;;;;4219537;34;20138;-47
2021/04/10 05:58:38;;;;;;;12.23;11.02;;;;;;;;;;4219834;34;20097;-53
2021/04/10 06:01:16;;;;;;;12.05;10.60;;;;;;;;;;4219090;34;20465;-51
2021/04/10 06:04:00;;;;;;;13.13;11.35;;;;;;;;;;4208776;34;20092;-49
2021/04/10 06:06:31;;;;;;;11.25;10.15;;;;;;;;;;4221062;28;20105;-53
2021/04/10 06:09:25;;;;;;;13.93;10.48;;;;;;;;;;4220142;34;20099;-52
2021/04/10 06:11:57;;;;;;;11.93;10.70;;;;;;;;;;4209313;34;20090;-50
2021/04/10 06:14:27;;;;;;;12.60;10.90;;;;;;;;;;4205728;34;20184;-51
2021/04/10 06:16:54;;;;;;;12.90;11.02;;;;;;;;;;4205643;34;20133;-55
2021/04/10 06:19:30;;;;;;;13.77;11.27;;;;;;;;;;4204650;34;20148;-54
2021/04/10 06:22:15;;;;;;;11.57;10.48;;;;;;;;;;4205399;34;20106;-53
2021/04/10 06:24:43;;;;;;;11.07;10.07;;;;;;;;;;4205782;34;20086;-56
2021/04/10 06:27:15;;;;;;;12.27;10.35;;;;;;;;;;4193224;34;20090;-50
2021/04/10 06:30:11;;;;;;;11.48;10.35;;;;;;;;;;4205699;34;20137;-50
2021/04/10 06:32:53;;;;;;;11.25;9.82;;;;;;;;;;4205929;34;20232;-50
2021/04/10 06:35:30;;;;;;;10.82;9.73;;;;;;;;;;4205875;34;20125;-50
2021/04/10 06:37:58;;;;;;;10.65;9.48;;;;;;;;;;4205463;34;20241;-54
2021/04/10 06:40:30;;;;;;;11.43;10.10;;;;;;;;;;4205616;34;20133;-51
2021/04/10 06:43:02;;;;;;;11.32;10.07;;;;;;;;;;4205897;34;20102;-52
2021/04/10 06:45:41;;;;;;;10.98;9.68;;;;;;;;;;4205366;34;20132;-50
2021/04/10 06:48:13;;;;;;;10.40;9.30;;;;;;;;;;4204551;34;20559;-52
2021/04/10 06:50:58;;;;;;;11.25;9.57;;;;;;;;;;4205658;34;20537;-50
2021/04/10 06:53:44;;;;;;;9.98;8.98;;;;;;;;;;4204559;34;20106;-48
2021/04/10 06:56:31;;;;;;;10.70;9.45;;;;;;;;;;4205480;34;20510;-47
2021/04/10 06:59:16;;;;;;;9.75;8.77;;;;;;;;;;4205712;34;20199;-51
2021/04/10 07:01:47;;;;;;;11.43;9.48;;;;;;;;;;4205528;34;20098;-47
2021/04/10 07:04:19;;;;;;;11.38;9.23;;;;;;;;;;4193561;34;20118;-50
2021/04/10 07:06:56;;;;;;;11.80;10.23;;;;;;;;;;4204067;34;20181;-47
2021/04/10 07:09:31;;;;;;;10.50;9.43;;;;;;;;;;4193153;34;20094;-49
2021/04/10 07:12:06;;;;;;;10.18;9.18;;;;;;;;;;4193173;34;20197;-53
2021/04/10 07:14:38;;;;;;;10.40;9.18;;;;;;;;;;4205541;34;20116;-51
2021/04/10 07:17:13;;;;;;;11.12;9.30;;;;;;;;;;4205369;34;20108;-51
2021/04/10 07:19:56;;;;;;;9.95;8.68;;;;;;;;;;4204875;34;20114;-48
2021/04/10 07:22:23;;;;;;;10.15;8.82;;;;;;;;;;4204993;34;20106;-54
2021/04/10 07:24:58;;;;;;;8.73;7.82;;;;;;;;;;4192581;34;20090;-54
2021/04/10 07:27:28;;;;;;;9.50;8.20;;;;;;;;;;4191035;34;20085;-53
2021/04/10 07:30:05;;;;;;;12.37;9.00;;;;;;;;;;4205456;34;20146;-50
2021/04/10 07:32:38;;;;;;;13.93;8.77;;;;;;;;;;4204894;34;20132;-47
2021/04/10 07:35:12;;;;;;;10.30;8.98;;;;;;;;;;4205379;34;20524;-54
2021/04/10 07:37:43;;;;;;;12.80;8.70;;;;;;;;;;4205426;34;20312;-56
2021/04/10 07:40:31;;;;;;;9.52;7.90;;;;;;;;;;4205546;34;20513;-49
2021/04/10 07:43:01;;;;;;;10.98;7.65;;;;;;;;;;4190384;34;20118;-51
2021/04/10 07:45:38;;;;;;;9.00;7.95;;;;;;;;;;4191446;34;20095;-51
2021/04/10 07:48:17;;;;;;;8.88;7.82;;;;;;;;;;4191436;34;20141;-54
2021/04/10 07:50:47;;;;;;;10.70;7.65;;;;;;;;;;4202960;34;20196;-55
2021/04/10 07:53:32;;;;;;;12.40;7.45;;;;;;;;;;4205310;34;20128;-51
2021/04/10 07:56:04;;;;;;;10.73;7.47;;;;;;;;;;4203889;34;20496;-54
2021/04/10 07:58:35;;;;;;;9.90;7.35;;;;;;;;;;4205263;34;20124;-55
2021/04/10 08:01:11;;;;;;;8.75;6.97;;;;;;;;;;4204980;34;20121;-54
2021/04/10 08:03:43;;;;;;;9.13;7.53;;;;;;;;;;4205117;34;20125;-50
2021/04/10 08:06:14;;;;;;;7.72;6.93;;;;;;;;;;4192247;34;20118;-48
2021/04/10 08:08:56;;;;;;;8.75;7.62;;;;;;;;;;4203766;34;20288;-54
2021/04/10 08:11:29;;;;;;;7.47;6.78;;;;;;;;;;4204848;34;20133;-54
2021/04/10 08:14:11;;;;;;;8.15;6.60;;;;;;;;;;4204914;34;20111;-48
2021/04/10 08:16:50;;;;;;;;;;;;;;;;;;4205507;34;20121;-56
2021/04/10 08:19:30;;;;;;;7.13;6.43;;;;;;;;;;4205063;34;19981;-54
2021/04/10 08:22:02;;;;;;;8.07;7.25;;;;;;;;;;4192146;34;20196;-55
2021/04/10 08:24:41;;;;;;;7.32;6.32;;;;;;;;;;4204763;34;20197;-56
2021/04/10 08:27:13;;;;;;;6.70;6.00;;;;;;;;;;4203386;34;20122;-54
2021/04/10 08:29:42;;;;;;;7.97;5.90;;;;;;;;;;4204749;34;20121;-55
2021/04/10 08:32:09;;;;;;;6.43;5.70;;;;;;;;;;4235542;28;20489;-53
2021/04/10 08:34:36;;;;;;;7.25;6.40;;;;;;;;;;4232000;33;20097;-48
2021/04/10 08:37:04;;;;;;;9.98;6.60;;;;;;;;;;4228543;28;20244;-55
2021/04/10 08:39:37;;;;;;;6.93;6.05;;;;;;;;;;4217389;34;20100;-49
2021/04/10 08:42:06;;;;;;;7.12;6.00;;;;;;;;;;4204652;34;20482;-51
2021/04/10 08:44:38;;;;;;;7.05;5.68;;;;;;;;;;4205372;34;20105;-53
2021/04/10 08:47:14;;;;;;;6.82;5.40;;;;;;;;;;4195298;34;20224;-49
2021/04/10 08:49:52;;;;;;;6.25;5.50;;;;;;;;;;4217448;34;20197;-48
2021/04/10 08:52:28;;;;;;;8.10;5.43;;;;;;;;;;4196042;34;20221;-53
2021/04/10 08:54:54;;;;;;;8.13;5.90;;;;;;;;;;4205384;34;20113;-47
2021/04/10 08:57:20;;;;;;;6.72;5.35;;;;;;;;;;4205286;34;20528;-53
2021/04/10 08:59:47;;;;;;;6.47;5.68;;;;;;;;;;4218345;34;20098;-54
2021/04/10 09:02:20;;;;;;;5.72;4.80;;;;;;;;;;4218075;34;20177;-54
2021/04/10 09:05:29;;;;;;;7.68;6.03;;;;;;;;;;4218676;34;20512;-53
2021/04/10 09:08:05;;;;;;;6.30;4.78;;;;;;;;;;4209783;34;20619;-50
2021/04/10 09:10:40;;;;;;;7.78;5.87;;;;;;;;;;4218090;34;20490;-46
2021/04/10 09:13:15;;;;;;;6.45;4.80;;;;;;;;;;4218474;34;20125;-55
2021/04/10 09:15:42;;;;;;;8.20;5.73;;;;;;;;;;4218092;34;20102;-50
2021/04/10 09:18:11;;;;;;;8.82;5.75;;;;;;;;;;4218208;34;20187;-51
2021/04/10 09:20:44;;;;;;;7.07;4.78;;;;;;;;;;4217979;34;20152;-52
2021/04/10 09:23:18;;;;;;;14.07;5.28;;;;;;;;;;4218414;34;20225;-55
2021/04/10 09:25:45;;;;;;;5.97;5.00;;;;;;;;;;4218092;34;20109;-48
2021/04/10 09:28:24;;;;;;;9.77;5.07;;;;;;;;;;4218304;34;20112;-46
2021/04/10 09:30:56;;;;;;;5.68;5.07;;;;;;;;;;4218281;34;20144;-49
2021/04/10 09:33:34;;;;;;;7.53;5.50;;;;;;;;;;4205444;34;20129;-52
2021/04/10 09:36:01;;;;;;;9.18;6.43;;;;;;;;;;4204917;33;20521;-52
2021/04/10 09:38:41;;;;;;;9.80;6.22;;;;;;;;;;4205097;34;20121;-54
2021/04/10 09:41:06;;;;;;;10.45;6.47;;;;;;;;;;4217721;34;20128;-54
2021/04/10 09:43:32;;;;;;;11.95;5.53;;;;;;;;;;4218095;34;20113;-51
2021/04/10 09:46:03;;;;;;;5.50;4.10;;;;;;;;;;4217475;34;20096;-50
2021/04/10 09:48:34;;;;;;;5.57;4.82;;;;;;;;;;4205092;34;20098;-53
2021/04/10 09:51:26;;;;;;;5.72;4.10;;;;;;;;;;4207829;34;20173;-50
2021/04/10 09:54:02;;;;;;;8.30;4.93;;;;;;;;;;4220033;34;20125;-56
2021/04/10 09:56:32;;;;;;;7.82;5.43;;;;;;;;;;4219771;34;20182;-48
2021/04/10 09:58:58;;;;;;;6.37;4.70;;;;;;;;;;4207072;34;20125;-51
2021/04/10 10:01:27;;;;;;;7.18;4.80;;;;;;;;;;4195396;34;20172;-51
2021/04/10 10:03:56;;;;;;;7.55;5.00;;;;;;;;;;4219948;34;20485;-48
2021/04/10 10:06:38;;;;;;;9.93;5.00;;;;;;;;;;4195802;34;20176;-55
2021/04/10 10:09:27;;;;;;;9.82;6.95;;;;;;;;;;4207713;34;20096;-48
2021/04/10 10:12:00;;;;;;;7.97;5.57;;;;;;;;;;4219862;34;20228;-54
2021/04/10 10:14:48;;;;;;;9.77;7.03;;;;;;;;;;4208105;34;20197;-54
2021/04/10 10:17:15;;;;;;;8.35;5.57;;;;;;;;;;4206996;34;20125;-52
2021/04/10 10:19:41;;;;;;;13.05;6.12;;;;;;;;;;4219991;34;20127;-49
2021/04/10 10:22:27;;;;;;;7.65;4.60;;;;;;;;;;4219964;34;20295;-55
2021/04/10 10:25:03;;;;;;;5.10;4.40;;;;;;;;;;4219741;34;20108;-55
2021/04/10 10:27:46;;;;;;;6.60;4.97;;;;;;;;;;4207232;34;20140;-48
2021/04/10 10:30:24;;;;;;;9.20;5.40;;;;;;;;;;4207865;34;20120;-50
2021/04/10 10:33:10;;;;;;;5.62;4.28;;;;;;;;;;4207802;34;20204;-53
2021/04/10 10:36:03;;;;;;;7.80;3.70;;;;;;;;;;4208077;34;20109;-53
2021/04/10 10:39:11;;;;;;;5.30;4.30;;;;;;;;;;4191958;34;20118;-48
2021/04/10 10:41:45;;;;;;;4.45;3.83;;;;;;;;;;4189157;34;20377;-50
2021/04/10 10:44:25;;;;;;;5.25;3.67;;;;;;;;;;4191919;34;20105;-49
2021/04/10 10:47:10;;;;;;;5.45;4.10;;;;;;;;;;4193441;34;20482;-50
2021/04/10 10:49:51;;;;;;;7.35;4.18;;;;;;;;;;4192995;34;20110;-53
2021/04/10 10:52:31;;;;;;;9.10;5.18;;;;;;;;;;4189402;34;20120;-47
2021/04/10 10:55:01;;;;;;;5.70;4.70;;;;;;;;;;4193191;34;20114;-49
2021/04/10 10:57:36;;;;;;;4.43;3.92;;;;;;;;;;4205345;34;20446;-53
2021/04/10 11:00:22;;;;;;;4.95;3.75;;;;;;;;;;4192953;34;20216;-55
2021/04/10 11:02:49;;;;;;;6.07;3.80;;;;;;;;;;4192525;34;20512;-50
2021/04/10 11:05:17;;;;;;;5.47;4.00;;;;;;;;;;4192642;34;20137;-54
2021/04/10 11:07:54;;;;;;;5.22;3.72;;;;;;;;;;4192884;34;20129;-54
2021/04/10 11:10:29;;;;;;;5.30;3.67;;;;;;;;;;4193709;34;20138;-52
2021/04/10 11:13:11;;;;;;;5.87;4.25;;;;;;;;;;4193795;34;20137;-47
2021/04/10 11:15:44;;;;;;;4.82;4.22;;;;;;;;;;4193218;34;20110;-54
2021/04/10 11:18:40;;;;;;;4.60;3.47;;;;;;;;;;4205257;34;20097;-46
2021/04/10 11:21:27;;;;;;;5.07;4.05;;;;;;;;;;4204931;34;20645;-54
2021/04/10 11:24:09;;;;;;;13.00;4.40;;;;;;;;;;4193192;34;20399;-56
2021/04/10 11:26:37;;;;;;;4.70;4.00;;;;;;;;;;4205338;34;20225;-47
2021/04/10 11:29:13;;;;;;;7.05;3.92;;;;;;;;;;4205138;34;20197;-48
2021/04/10 11:31:42;;;;;;;5.50;4.20;;;;;;;;;;4205180;34;20592;-48
2021/04/10 11:34:33;;;;;;;4.40;4.00;;;;;;;;;;4205357;34;20111;-55
2021/04/10 11:37:07;;;;;;;6.28;4.40;;;;;;;;;;4211891;34;20089;-54
2021/04/10 11:39:56;;;;;;;4.95;4.20;;;;;;;;;;4219046;34;20208;-53
2021/04/10 11:42:35;;;;;;;5.55;4.90;;;;;;;;;;4219180;33;20117;-53
2021/04/10 11:45:06;;;;;;;7.05;4.20;;;;;;;;;;4219042;34;20187;-56
2021/04/10 11:47:38;;;;;;;6.70;4.80;;;;;;;;;;4219218;33;20175;-55
2021/04/10 11:50:12;;;;;;;5.15;4.05;;;;;;;;;;4219164;34;20503;-52
2021/04/10 11:52:40;;;;;;;7.43;3.50;;;;;;;;;;4219112;33;20129;-55
2021/04/10 11:55:18;;;;;;;5.62;4.03;;;;;;;;;;4219078;34;20124;-54
2021/04/10 11:57:58;;;;;;;15.95;4.55;;;;;;;;;;4219394;34;20105;-55
2021/04/10 12:00:30;;;;;;;9.10;4.28;;;;;;;;;;4218614;34;20208;-55
2021/04/10 12:03:11;;;;;;;5.00;4.12;;;;;;;;;;4219060;34;20110;-53
2021/04/10 12:05:42;;;;;;;8.90;4.30;;;;;;;;;;4218766;34;20497;-53
2021/04/10 12:08:22;;;;;;;4.05;3.53;;;;;;;;;;4218969;34;20121;-52
2021/04/10 12:11:00;;;;;;;5.00;4.05;;;;;;;;;;4218718;34;20097;-54
2021/04/10 12:13:31;;;;;;;5.82;4.72;;;;;;;;;;4195688;34;20125;-55
2021/04/10 12:16:01;;;;;;;5.87;4.90;;;;;;;;;;4218892;34;20121;-55
2021/04/10 12:18:33;;;;;;;7.65;6.22;;;;;;;;;;4218968;34;20117;-55
2021/04/10 12:21:06;;;;;;;9.68;6.53;;;;;;;;;;4206091;34;20091;-50
2021/04/10 12:23:36;;;;;;;9.57;7.87;;;;;;;;;;4218991;34;20297;-50
2021/04/10 12:26:09;;;;;;;8.68;7.80;;;;;;;;;;4218770;34;20516;-49
2021/04/10 12:28:46;;;;;;;9.27;7.65;;;;;;;;;;4206488;34;20434;-55
2021/04/10 12:31:22;;;;;;;10.48;7.75;;;;;;;;;;4218405;34;20116;-51
2021/04/10 12:33:54;;;;;;;7.93;6.80;;;;;;;;;;4207165;34;20113;-49
2021/04/10 12:36:30;;;;;;;8.10;7.32;;;;;;;;;;4205900;34;20508;-50
2021/04/10 12:39:07;;;;;;;;;;;;;;;;;;4219169;34;20117;-56
2021/04/10 12:41:33;;;;;;;9.38;8.45;;;;;;;;;;4218071;34;19969;-47
2021/04/10 12:43:59;;;;;;;12.55;8.35;;;;;;;;;;4217923;34;20117;-46
2021/04/10 12:46:48;;;;;;;7.93;6.95;;;;;;;;;;4218247;34;20485;-54
2021/04/10 12:49:15;;;;;;;10.77;7.10;;;;;;;;;;4218359;34;20189;-54
2021/04/10 12:51:45;;;;;;;8.68;7.62;;;;;;;;;;4205135;34;20108;-51
2021/04/10 12:54:24;;;;;;;7.37;6.68;;;;;;;;;;4206861;34;20219;-54
2021/04/10 12:56:59;;;;;;;7.65;6.45;;;;;;;;;;4218394;34;20137;-55
2021/04/10 12:59:35;;;;;;;7.10;6.40;;;;;;;;;;4218247;34;20098;-52
2021/04/10 13:02:21;;;;;;;9.52;7.20;;;;;;;;;;4218315;34;20117;-55
2021/04/10 13:04:52;;;;;;;10.40;7.57;;;;;;;;;;4217608;34;20109;-50
2021/04/10 13:07:19;;;;;;;8.30;6.43;;;;;;;;;;4205156;34;20129;-50
2021/04/10 13:09:51;;;;;;;11.73;7.62;;;;;;;;;;4218191;34;20124;-54
2021/04/10 13:12:20;;;;;;;9.43;7.30;;;;;;;;;;4218137;33;20121;-49
2021/04/10 13:15:05;;;;;;;14.60;6.53;;;;;;;;;;4206153;34;20529;-47
2021/04/10 13:17:36;;;;;;;10.77;6.90;;;;;;;;;;4194868;34;20532;-56
2021/04/10 13:20:10;;;;;;;7.95;7.15;;;;;;;;;;4205666;34;20559;-53
2021/04/10 13:22:46;;;;;;;8.82;7.32;;;;;;;;;;4218058;34;20619;-50
2021/04/10 13:25:29;;;;;;;7.87;6.45;;;;;;;;;;4208330;34;20113;-55
2021/04/10 13:28:10;;;;;;;7.62;6.82;;;;;;;;;;4208240;34;20112;-54
2021/04/10 13:30:59;;;;;;;8.18;7.10;;;;;;;;;;4220122;34;20090;-56
2021/04/10 13:33:41;;;;;;;7.80;7.00;;;;;;;;;;4220270;34;20121;-48
2021/04/10 13:36:17;;;;;;;7.65;6.85;;;;;;;;;;4220336;33;20113;-55
2021/04/10 13:38:51;;;;;;;8.60;7.68;;;;;;;;;;4220525;34;20114;-47
2021/04/10 13:41:35;;;;;;;8.82;7.30;;;;;;;;;;4219947;34;20136;-54
2021/04/10 13:44:14;;;;;;;7.72;6.57;;;;;;;;;;4208100;34;20240;-56
2021/04/10 13:46:51;;;;;;;7.40;6.57;;;;;;;;;;4220626;34;20220;-47
2021/04/10 13:49:34;;;;;;;8.80;7.05;;;;;;;;;;4220167;34;20113;-54
2021/04/10 13:52:08;;;;;;;10.30;8.00;;;;;;;;;;4220161;34;20424;-48
2021/04/10 13:54:46;;;;;;;7.70;6.90;;;;;;;;;;4220393;34;20120;-49
2021/04/10 13:57:16;;;;;;;13.20;8.02;;;;;;;;;;4207903;34;20114;-49
2021/04/10 14:00:14;;;;;;;11.05;8.00;;;;;;;;;;4219183;34;20090;-54
2021/04/10 14:02:55;;;;;;;10.02;8.00;;;;;;;;;;4207580;34;20197;-53
2021/04/10 14:05:29;;;;;;;8.98;7.40;;;;;;;;;;4219842;33;20213;-53
2021/04/10 14:08:07;;;;;;;12.52;8.23;;;;;;;;;;4220207;34;20097;-49
2021/04/10 14:10:40;;;;;;;13.82;8.80;;;;;;;;;;4207928;33;20544;-50
2021/04/10 14:13:06;;;;;;;9.95;8.68;;;;;;;;;;4220088;34;20086;-52
2021/04/10 14:15:36;;;;;;;10.98;9.15;;;;;;;;;;4206947;33;20117;-50
2021/04/10 14:18:33;;;;;;;9.85;8.25;;;;;;;;;;4219605;34;20097;-55
2021/04/10 14:21:05;;;;;;;9.10;7.93;;;;;;;;;;4206756;34;20132;-52
2021/04/10 14:23:46;;;;;;;13.10;9.52;;;;;;;;;;4219870;34;20423;-50
2021/04/10 14:26:30;;;;;;;11.50;7.50;;;;;;;;;;4219922;34;20101;-49
2021/04/10 14:29:00;;;;;;;9.57;7.15;;;;;;;;;;4207093;34;20196;-49
2021/04/10 14:31:29;;;;;;;11.98;7.57;;;;;;;;;;4207237;34;20164;-54
2021/04/10 14:34:03;;;;;;;9.55;8.05;;;;;;;;;;4207067;34;20117;-51
2021/04/10 14:36:36;;;;;;;12.32;9.00;;;;;;;;;;4219477;34;20112;-52
2021/04/10 14:39:13;;;;;;;11.82;8.70;;;;;;;;;;4206764;33;20116;-48
2021/04/10 14:41:43;;;;;;;9.23;8.30;;;;;;;;;;4223779;28;20117;-56
2021/04/10 14:44:25;;;;;;;10.38;7.45;;;;;;;;;;4207533;34;20210;-49
2021/04/10 14:47:04;;;;;;;9.40;8.23;;;;;;;;;;4206808;34;20185;-49
2021/04/10 14:49:58;;;;;;;10.85;9.52;;;;;;;;;;4219881;34;20106;-55
2021/04/10 14:52:29;;;;;;;9.75;8.80;;;;;;;;;;4205783;34;20171;-50
2021/04/10 14:55:02;;;;;;;9.75;8.02;;;;;;;;;;4209745;34;20596;-55
2021/04/10 14:57:38;;;;;;;8.85;7.30;;;;;;;;;;4219450;33;20547;-56
2021/04/10 15:00:06;;;;;;;8.95;6.47;;;;;;;;;;4219477;34;20547;-54
2021/04/10 15:02:36;;;;;;;8.23;6.57;;;;;;;;;;4206807;34;20519;-54
2021/04/10 15:05:06;;;;;;;8.85;7.32;;;;;;;;;;4207070;34;20121;-50
2021/04/10 15:07:33;;;;;;;9.00;7.30;;;;;;;;;;4206442;34;20102;-48
2021/04/10 15:10:06;;;;;;;9.65;6.75;;;;;;;;;;4218880;34;20128;-53
2021/04/10 15:13:27;;;;;;;8.60;7.47;;;;;;;;;;4218979;34;20572;-55
2021/04/10 15:15:57;;;;;;;7.95;6.05;;;;;;;;;;4205499;34;20594;-47
2021/04/10 15:18:23;;;;;;;9.50;6.78;;;;;;;;;;4212058;34;20105;-51
2021/04/10 15:20:53;;;;;;;7.80;6.78;;;;;;;;;;4219132;33;20467;-54
2021/04/10 15:23:37;;;;;;;7.62;6.72;;;;;;;;;;4207698;34;20121;-55
2021/04/10 15:26:20;;;;;;;8.02;7.20;;;;;;;;;;4201274;34;20232;-54
2021/04/10 15:29:00;;;;;;;11.05;7.60;;;;;;;;;;4219427;34;20109;-55
2021/04/10 15:31:44;;;;;;;9.65;8.07;;;;;;;;;;4217948;34;20644;-50
2021/04/10 15:34:13;;;;;;;8.75;7.82;;;;;;;;;;4201282;34;20576;-47
2021/04/10 15:36:45;;;;;;;11.20;9.52;;;;;;;;;;4205644;34;20106;-51